Avondale, Pennsylvania
Current Conditions -  °F | °C
As of 9:55 PM on Monday 22 Dec 2014 (Local Time) from KMQS Reporting Station
Light Rain Light Rain  
Wind Chill:   Ceiling: 300
Heat Index:   Visibility: 1.7mi
Dew Point:   Wind: 0mph
Humidity: 100%   Direction: NA
Pressure: 30.14"   Gusts: NA
Location:  39.82°N, 75.78°W
Report Text: KMQS 230255Z AUTO 00000KT 1 3/4SM -RA OVC003 04/04 A3014 RMK AO2 P0001
Loading
Personal Weather Stations






























Interactive Weather Map New forecast layout! Learn more

10-Day Weather Forecast

Advertisements
Track Severe Weather on mobile